sensor_id;sensor_type;location;lat;lon;timestamp;P1;durP1;ratioP1;P2;durP2;ratioP2
20734;SDS011;10528;52.124;5.196;2023-07-28T00:00:50;11.13;;;7.60;;
20734;SDS011;10528;52.124;5.196;2023-07-28T00:03:17;9.10;;;7.13;;
20734;SDS011;10528;52.124;5.196;2023-07-28T00:05:44;11.13;;;7.38;;
20734;SDS011;10528;52.124;5.196;2023-07-28T00:08:11;9.77;;;7.35;;
20734;SDS011;10528;52.124;5.196;2023-07-28T00:10:41;8.43;;;6.05;;
20734;SDS011;10528;52.124;5.196;2023-07-28T00:13:09;9.88;;;5.90;;
20734;SDS011;10528;52.124;5.196;2023-07-28T00:15:36;10.32;;;6.15;;
20734;SDS011;10528;52.124;5.196;2023-07-28T00:18:02;9.27;;;6.28;;
20734;SDS011;10528;52.124;5.196;2023-07-28T00:20:29;9.23;;;5.32;;
20734;SDS011;10528;52.124;5.196;2023-07-28T00:22:56;8.93;;;4.90;;
20734;SDS011;10528;52.124;5.196;2023-07-28T00:25:24;8.40;;;6.13;;
20734;SDS011;10528;52.124;5.196;2023-07-28T00:27:51;9.23;;;5.75;;
20734;SDS011;10528;52.124;5.196;2023-07-28T00:30:18;8.73;;;5.40;;
20734;SDS011;10528;52.124;5.196;2023-07-28T00:32:46;10.98;;;4.95;;
20734;SDS011;10528;52.124;5.196;2023-07-28T00:35:13;9.43;;;5.82;;
20734;SDS011;10528;52.124;5.196;2023-07-28T00:37:40;9.32;;;5.53;;
20734;SDS011;10528;52.124;5.196;2023-07-28T00:40:07;9.98;;;5.95;;
20734;SDS011;10528;52.124;5.196;2023-07-28T00:42:34;11.18;;;5.97;;
20734;SDS011;10528;52.124;5.196;2023-07-28T00:45:02;13.68;;;6.63;;
20734;SDS011;10528;52.124;5.196;2023-07-28T00:47:30;10.02;;;6.22;;
20734;SDS011;10528;52.124;5.196;2023-07-28T00:49:57;9.98;;;5.93;;
20734;SDS011;10528;52.124;5.196;2023-07-28T00:52:24;10.73;;;5.60;;
20734;SDS011;10528;52.124;5.196;2023-07-28T00:54:51;9.52;;;5.43;;
20734;SDS011;10528;52.124;5.196;2023-07-28T00:57:18;9.40;;;5.47;;
20734;SDS011;10528;52.124;5.196;2023-07-28T00:59:46;13.20;;;6.32;;
20734;SDS011;10528;52.124;5.196;2023-07-28T01:02:17;10.70;;;5.70;;
20734;SDS011;10528;52.124;5.196;2023-07-28T01:04:45;12.57;;;6.43;;
20734;SDS011;10528;52.124;5.196;2023-07-28T01:07:14;13.05;;;6.53;;
20734;SDS011;10528;52.124;5.196;2023-07-28T01:09:54;12.60;;;6.22;;
20734;SDS011;10528;52.124;5.196;2023-07-28T01:12:31;9.38;;;6.35;;
20734;SDS011;10528;52.124;5.196;2023-07-28T01:14:59;11.77;;;7.05;;
20734;SDS011;10528;52.124;5.196;2023-07-28T01:17:26;11.27;;;6.82;;
20734;SDS011;10528;52.124;5.196;2023-07-28T01:19:53;9.05;;;6.07;;
20734;SDS011;10528;52.124;5.196;2023-07-28T01:22:26;16.70;;;7.78;;
20734;SDS011;10528;52.124;5.196;2023-07-28T01:28:11;13.68;;;7.47;;
20734;SDS011;10528;52.124;5.196;2023-07-28T01:30:39;14.75;;;7.85;;
20734;SDS011;10528;52.124;5.196;2023-07-28T01:33:07;16.05;;;7.93;;
20734;SDS011;10528;52.124;5.196;2023-07-28T01:35:37;11.93;;;7.80;;
20734;SDS011;10528;52.124;5.196;2023-07-28T01:38:04;13.23;;;7.25;;
20734;SDS011;10528;52.124;5.196;2023-07-28T01:40:32;15.27;;;8.77;;
20734;SDS011;10528;52.124;5.196;2023-07-28T01:42:59;14.75;;;7.88;;
20734;SDS011;10528;52.124;5.196;2023-07-28T01:45:26;15.25;;;8.57;;
20734;SDS011;10528;52.124;5.196;2023-07-28T01:47:53;12.07;;;8.05;;
20734;SDS011;10528;52.124;5.196;2023-07-28T01:50:20;12.85;;;7.85;;
20734;SDS011;10528;52.124;5.196;2023-07-28T01:52:47;13.98;;;7.50;;
20734;SDS011;10528;52.124;5.196;2023-07-28T01:55:14;14.32;;;8.20;;
20734;SDS011;10528;52.124;5.196;2023-07-28T01:57:49;13.88;;;8.60;;
20734;SDS011;10528;52.124;5.196;2023-07-28T02:00:20;14.38;;;8.73;;
20734;SDS011;10528;52.124;5.196;2023-07-28T02:02:47;16.20;;;8.43;;
20734;SDS011;10528;52.124;5.196;2023-07-28T02:05:15;14.45;;;9.55;;
20734;SDS011;10528;52.124;5.196;2023-07-28T02:07:43;14.20;;;9.00;;
20734;SDS011;10528;52.124;5.196;2023-07-28T02:10:09;15.38;;;10.13;;
20734;SDS011;10528;52.124;5.196;2023-07-28T02:12:37;16.98;;;9.88;;
20734;SDS011;10528;52.124;5.196;2023-07-28T02:15:05;14.38;;;8.98;;
20734;SDS011;10528;52.124;5.196;2023-07-28T02:17:33;15.40;;;9.18;;
20734;SDS011;10528;52.124;5.196;2023-07-28T02:20:01;16.67;;;9.27;;
20734;SDS011;10528;52.124;5.196;2023-07-28T02:22:29;19.73;;;10.55;;
20734;SDS011;10528;52.124;5.196;2023-07-28T02:24:56;18.15;;;10.23;;
20734;SDS011;10528;52.124;5.196;2023-07-28T02:27:28;16.10;;;9.73;;
20734;SDS011;10528;52.124;5.196;2023-07-28T02:29:55;16.10;;;10.25;;
20734;SDS011;10528;52.124;5.196;2023-07-28T02:32:22;15.48;;;9.60;;
20734;SDS011;10528;52.124;5.196;2023-07-28T02:34:49;17.55;;;10.05;;
20734;SDS011;10528;52.124;5.196;2023-07-28T02:37:16;17.75;;;10.38;;
20734;SDS011;10528;52.124;5.196;2023-07-28T02:39:43;19.45;;;11.60;;
20734;SDS011;10528;52.124;5.196;2023-07-28T02:42:11;18.05;;;9.43;;
20734;SDS011;10528;52.124;5.196;2023-07-28T02:44:39;23.15;;;10.35;;
20734;SDS011;10528;52.124;5.196;2023-07-28T02:47:06;16.10;;;9.48;;
20734;SDS011;10528;52.124;5.196;2023-07-28T02:49:33;22.33;;;10.82;;
20734;SDS011;10528;52.124;5.196;2023-07-28T02:52:01;17.40;;;9.40;;
20734;SDS011;10528;52.124;5.196;2023-07-28T02:54:29;15.50;;;10.05;;
20734;SDS011;10528;52.124;5.196;2023-07-28T02:56:56;19.00;;;9.70;;
20734;SDS011;10528;52.124;5.196;2023-07-28T02:59:23;19.58;;;10.57;;
20734;SDS011;10528;52.124;5.196;2023-07-28T03:01:50;14.90;;;9.30;;
20734;SDS011;10528;52.124;5.196;2023-07-28T03:04:18;17.42;;;9.65;;
20734;SDS011;10528;52.124;5.196;2023-07-28T03:07:05;20.80;;;10.27;;
20734;SDS011;10528;52.124;5.196;2023-07-28T03:09:33;17.92;;;9.60;;
20734;SDS011;10528;52.124;5.196;2023-07-28T03:12:01;20.27;;;11.27;;
20734;SDS011;10528;52.124;5.196;2023-07-28T03:14:29;16.00;;;9.35;;
20734;SDS011;10528;52.124;5.196;2023-07-28T03:16:55;15.50;;;9.20;;
20734;SDS011;10528;52.124;5.196;2023-07-28T03:19:22;20.85;;;8.52;;
20734;SDS011;10528;52.124;5.196;2023-07-28T03:21:49;18.90;;;9.27;;
20734;SDS011;10528;52.124;5.196;2023-07-28T03:24:16;24.10;;;10.77;;
20734;SDS011;10528;52.124;5.196;2023-07-28T03:26:43;18.23;;;9.45;;
20734;SDS011;10528;52.124;5.196;2023-07-28T03:29:10;18.35;;;10.10;;
20734;SDS011;10528;52.124;5.196;2023-07-28T03:31:37;20.52;;;9.98;;
20734;SDS011;10528;52.124;5.196;2023-07-28T03:34:05;19.02;;;10.30;;
20734;SDS011;10528;52.124;5.196;2023-07-28T03:36:32;19.33;;;10.88;;
20734;SDS011;10528;52.124;5.196;2023-07-28T03:38:59;19.48;;;10.30;;
20734;SDS011;10528;52.124;5.196;2023-07-28T03:41:27;20.98;;;12.25;;
20734;SDS011;10528;52.124;5.196;2023-07-28T03:43:54;20.58;;;10.95;;
20734;SDS011;10528;52.124;5.196;2023-07-28T03:46:21;19.08;;;8.80;;
20734;SDS011;10528;52.124;5.196;2023-07-28T03:48:48;20.27;;;11.32;;
20734;SDS011;10528;52.124;5.196;2023-07-28T03:51:15;21.85;;;11.45;;
20734;SDS011;10528;52.124;5.196;2023-07-28T03:53:42;22.20;;;11.23;;
20734;SDS011;10528;52.124;5.196;2023-07-28T03:56:08;22.98;;;11.80;;
20734;SDS011;10528;52.124;5.196;2023-07-28T03:58:36;26.30;;;12.38;;
20734;SDS011;10528;52.124;5.196;2023-07-28T04:01:02;22.35;;;11.40;;
20734;SDS011;10528;52.124;5.196;2023-07-28T04:03:29;19.35;;;11.27;;
20734;SDS011;10528;52.124;5.196;2023-07-28T04:05:56;26.90;;;12.10;;
20734;SDS011;10528;52.124;5.196;2023-07-28T04:08:24;19.45;;;11.45;;
20734;SDS011;10528;52.124;5.196;2023-07-28T04:10:51;21.98;;;12.02;;
20734;SDS011;10528;52.124;5.196;2023-07-28T04:13:18;23.02;;;12.07;;
20734;SDS011;10528;52.124;5.196;2023-07-28T04:15:45;20.67;;;12.45;;
20734;SDS011;10528;52.124;5.196;2023-07-28T04:18:12;19.83;;;11.25;;
20734;SDS011;10528;52.124;5.196;2023-07-28T04:20:39;26.75;;;13.02;;
20734;SDS011;10528;52.124;5.196;2023-07-28T04:23:06;22.77;;;12.32;;
20734;SDS011;10528;52.124;5.196;2023-07-28T04:25:35;21.52;;;11.93;;
20734;SDS011;10528;52.124;5.196;2023-07-28T04:28:02;24.90;;;13.40;;
20734;SDS011;10528;52.124;5.196;2023-07-28T04:30:30;24.63;;;11.73;;
20734;SDS011;10528;52.124;5.196;2023-07-28T04:32:57;23.92;;;12.02;;
20734;SDS011;10528;52.124;5.196;2023-07-28T04:35:30;26.25;;;13.27;;
20734;SDS011;10528;52.124;5.196;2023-07-28T04:38:10;23.60;;;12.65;;
20734;SDS011;10528;52.124;5.196;2023-07-28T04:40:45;23.88;;;13.18;;
20734;SDS011;10528;52.124;5.196;2023-07-28T04:43:14;26.27;;;13.02;;
20734;SDS011;10528;52.124;5.196;2023-07-28T04:45:47;24.60;;;12.18;;
20734;SDS011;10528;52.124;5.196;2023-07-28T04:48:18;26.13;;;14.07;;
20734;SDS011;10528;52.124;5.196;2023-07-28T04:50:46;26.75;;;12.73;;
20734;SDS011;10528;52.124;5.196;2023-07-28T04:53:44;22.73;;;12.55;;
20734;SDS011;10528;52.124;5.196;2023-07-28T04:56:17;26.80;;;11.63;;
20734;SDS011;10528;52.124;5.196;2023-07-28T04:58:44;24.48;;;12.90;;
20734;SDS011;10528;52.124;5.196;2023-07-28T05:01:11;23.35;;;11.65;;
20734;SDS011;10528;52.124;5.196;2023-07-28T05:03:43;25.05;;;11.27;;
20734;SDS011;10528;52.124;5.196;2023-07-28T05:06:20;19.05;;;10.85;;
20734;SDS011;10528;52.124;5.196;2023-07-28T05:08:47;23.95;;;12.57;;
20734;SDS011;10528;52.124;5.196;2023-07-28T05:11:20;21.52;;;11.73;;
20734;SDS011;10528;52.124;5.196;2023-07-28T05:13:46;22.23;;;12.15;;
20734;SDS011;10528;52.124;5.196;2023-07-28T05:16:13;22.67;;;11.57;;
20734;SDS011;10528;52.124;5.196;2023-07-28T05:18:59;27.27;;;12.70;;
20734;SDS011;10528;52.124;5.196;2023-07-28T05:21:46;21.63;;;11.95;;
20734;SDS011;10528;52.124;5.196;2023-07-28T05:24:15;23.92;;;12.10;;
20734;SDS011;10528;52.124;5.196;2023-07-28T05:26:42;26.83;;;12.50;;
20734;SDS011;10528;52.124;5.196;2023-07-28T05:29:09;17.77;;;10.20;;
20734;SDS011;10528;52.124;5.196;2023-07-28T05:31:36;23.92;;;12.27;;
20734;SDS011;10528;52.124;5.196;2023-07-28T05:34:09;21.77;;;12.73;;
20734;SDS011;10528;52.124;5.196;2023-07-28T05:36:38;19.45;;;11.73;;
20734;SDS011;10528;52.124;5.196;2023-07-28T05:39:06;23.27;;;11.68;;
20734;SDS011;10528;52.124;5.196;2023-07-28T05:41:38;20.27;;;11.65;;
20734;SDS011;10528;52.124;5.196;2023-07-28T05:44:08;21.58;;;12.10;;
20734;SDS011;10528;52.124;5.196;2023-07-28T05:46:35;20.52;;;11.45;;
20734;SDS011;10528;52.124;5.196;2023-07-28T05:49:02;21.42;;;12.07;;
20734;SDS011;10528;52.124;5.196;2023-07-28T05:51:29;20.10;;;11.35;;
20734;SDS011;10528;52.124;5.196;2023-07-28T05:53:56;22.00;;;12.30;;
20734;SDS011;10528;52.124;5.196;2023-07-28T05:56:23;20.65;;;12.00;;
20734;SDS011;10528;52.124;5.196;2023-07-28T05:58:50;27.10;;;12.27;;
20734;SDS011;10528;52.124;5.196;2023-07-28T06:01:17;18.75;;;11.38;;
20734;SDS011;10528;52.124;5.196;2023-07-28T06:04:03;19.60;;;10.68;;
20734;SDS011;10528;52.124;5.196;2023-07-28T06:06:37;23.60;;;10.75;;
20734;SDS011;10528;52.124;5.196;2023-07-28T06:09:04;16.42;;;9.05;;
20734;SDS011;10528;52.124;5.196;2023-07-28T06:11:33;20.08;;;9.73;;
20734;SDS011;10528;52.124;5.196;2023-07-28T06:14:02;15.88;;;9.43;;
20734;SDS011;10528;52.124;5.196;2023-07-28T06:16:32;17.70;;;10.25;;
20734;SDS011;10528;52.124;5.196;2023-07-28T06:18:59;20.45;;;11.55;;
20734;SDS011;10528;52.124;5.196;2023-07-28T06:21:26;18.58;;;10.65;;
20734;SDS011;10528;52.124;5.196;2023-07-28T06:23:53;17.25;;;10.88;;
20734;SDS011;10528;52.124;5.196;2023-07-28T06:26:20;22.95;;;11.35;;
20734;SDS011;10528;52.124;5.196;2023-07-28T06:28:47;20.23;;;11.05;;
20734;SDS011;10528;52.124;5.196;2023-07-28T06:31:14;20.95;;;11.85;;
20734;SDS011;10528;52.124;5.196;2023-07-28T06:33:41;23.77;;;12.18;;
20734;SDS011;10528;52.124;5.196;2023-07-28T06:36:08;19.95;;;11.35;;
20734;SDS011;10528;52.124;5.196;2023-07-28T06:38:35;23.02;;;13.15;;
20734;SDS011;10528;52.124;5.196;2023-07-28T06:41:02;21.80;;;11.57;;
20734;SDS011;10528;52.124;5.196;2023-07-28T06:43:29;21.98;;;12.95;;
20734;SDS011;10528;52.124;5.196;2023-07-28T06:46:00;21.90;;;11.93;;
20734;SDS011;10528;52.124;5.196;2023-07-28T06:48:27;16.55;;;10.35;;
20734;SDS011;10528;52.124;5.196;2023-07-28T06:50:55;19.83;;;11.82;;
20734;SDS011;10528;52.124;5.196;2023-07-28T06:53:22;21.35;;;11.68;;
20734;SDS011;10528;52.124;5.196;2023-07-28T06:55:49;18.67;;;12.05;;
20734;SDS011;10528;52.124;5.196;2023-07-28T06:58:16;16.67;;;10.80;;
20734;SDS011;10528;52.124;5.196;2023-07-28T07:00:42;31.83;;;11.95;;
20734;SDS011;10528;52.124;5.196;2023-07-28T07:03:09;18.02;;;10.95;;
20734;SDS011;10528;52.124;5.196;2023-07-28T07:05:38;17.50;;;10.85;;
20734;SDS011;10528;52.124;5.196;2023-07-28T07:08:05;15.95;;;10.25;;
20734;SDS011;10528;52.124;5.196;2023-07-28T07:10:32;19.75;;;11.60;;
20734;SDS011;10528;52.124;5.196;2023-07-28T07:12:59;20.60;;;11.07;;
20734;SDS011;10528;52.124;5.196;2023-07-28T07:15:26;16.08;;;11.65;;
20734;SDS011;10528;52.124;5.196;2023-07-28T07:17:54;21.73;;;11.50;;
20734;SDS011;10528;52.124;5.196;2023-07-28T07:20:21;20.20;;;12.15;;
20734;SDS011;10528;52.124;5.196;2023-07-28T07:22:48;17.52;;;12.75;;
20734;SDS011;10528;52.124;5.196;2023-07-28T07:25:16;22.83;;;14.05;;
20734;SDS011;10528;52.124;5.196;2023-07-28T07:27:43;17.77;;;11.30;;
20734;SDS011;10528;52.124;5.196;2023-07-28T07:30:11;21.75;;;12.77;;
20734;SDS011;10528;52.124;5.196;2023-07-28T07:32:38;17.85;;;11.20;;
20734;SDS011;10528;52.124;5.196;2023-07-28T07:35:06;15.63;;;11.13;;
20734;SDS011;10528;52.124;5.196;2023-07-28T07:37:34;19.85;;;10.73;;
20734;SDS011;10528;52.124;5.196;2023-07-28T07:40:01;16.90;;;10.65;;
20734;SDS011;10528;52.124;5.196;2023-07-28T07:42:39;18.58;;;11.75;;
20734;SDS011;10528;52.124;5.196;2023-07-28T07:45:13;16.83;;;11.57;;
20734;SDS011;10528;52.124;5.196;2023-07-28T07:47:41;15.73;;;10.75;;
20734;SDS011;10528;52.124;5.196;2023-07-28T07:50:09;12.43;;;8.57;;
20734;SDS011;10528;52.124;5.196;2023-07-28T07:52:38;16.20;;;10.60;;
20734;SDS011;10528;52.124;5.196;2023-07-28T07:55:08;20.13;;;10.73;;
20734;SDS011;10528;52.124;5.196;2023-07-28T07:57:40;18.27;;;9.70;;
20734;SDS011;10528;52.124;5.196;2023-07-28T08:00:08;15.27;;;9.25;;
20734;SDS011;10528;52.124;5.196;2023-07-28T08:02:40;13.88;;;8.68;;
20734;SDS011;10528;52.124;5.196;2023-07-28T08:05:11;12.45;;;8.45;;
20734;SDS011;10528;52.124;5.196;2023-07-28T08:07:38;12.70;;;8.35;;
20734;SDS011;10528;52.124;5.196;2023-07-28T08:10:05;13.38;;;7.45;;
20734;SDS011;10528;52.124;5.196;2023-07-28T08:12:33;11.48;;;7.72;;
20734;SDS011;10528;52.124;5.196;2023-07-28T08:15:00;14.23;;;7.88;;
20734;SDS011;10528;52.124;5.196;2023-07-28T08:17:27;11.70;;;7.18;;
20734;SDS011;10528;52.124;5.196;2023-07-28T08:19:54;8.02;;;6.05;;
20734;SDS011;10528;52.124;5.196;2023-07-28T08:22:21;11.68;;;6.97;;
20734;SDS011;10528;52.124;5.196;2023-07-28T08:24:48;11.25;;;6.28;;
20734;SDS011;10528;52.124;5.196;2023-07-28T08:27:15;10.10;;;6.70;;
20734;SDS011;10528;52.124;5.196;2023-07-28T08:29:42;11.43;;;6.55;;
20734;SDS011;10528;52.124;5.196;2023-07-28T08:32:09;9.85;;;6.53;;
20734;SDS011;10528;52.124;5.196;2023-07-28T08:34:36;11.30;;;7.15;;
20734;SDS011;10528;52.124;5.196;2023-07-28T08:37:03;10.25;;;6.45;;
20734;SDS011;10528;52.124;5.196;2023-07-28T08:39:30;10.10;;;5.63;;
20734;SDS011;10528;52.124;5.196;2023-07-28T08:41:58;7.15;;;5.13;;
20734;SDS011;10528;52.124;5.196;2023-07-28T08:44:32;8.77;;;5.43;;
20734;SDS011;10528;52.124;5.196;2023-07-28T08:47:01;9.70;;;5.43;;
20734;SDS011;10528;52.124;5.196;2023-07-28T08:49:33;8.38;;;5.50;;
20734;SDS011;10528;52.124;5.196;2023-07-28T08:52:02;8.38;;;4.80;;
20734;SDS011;10528;52.124;5.196;2023-07-28T08:54:30;7.18;;;4.80;;
20734;SDS011;10528;52.124;5.196;2023-07-28T08:56:57;7.90;;;3.90;;
20734;SDS011;10528;52.124;5.196;2023-07-28T08:59:25;8.52;;;3.88;;
20734;SDS011;10528;52.124;5.196;2023-07-28T09:01:55;5.15;;;3.30;;
20734;SDS011;10528;52.124;5.196;2023-07-28T09:04:25;6.18;;;3.80;;
20734;SDS011;10528;52.124;5.196;2023-07-28T09:06:52;9.82;;;3.92;;
20734;SDS011;10528;52.124;5.196;2023-07-28T09:09:22;6.88;;;3.47;;
20734;SDS011;10528;52.124;5.196;2023-07-28T09:11:51;10.85;;;3.35;;
20734;SDS011;10528;52.124;5.196;2023-07-28T09:14:21;7.25;;;3.97;;
20734;SDS011;10528;52.124;5.196;2023-07-28T09:16:52;8.35;;;4.47;;
20734;SDS011;10528;52.124;5.196;2023-07-28T09:19:20;9.15;;;4.20;;
20734;SDS011;10528;52.124;5.196;2023-07-28T09:22:00;8.10;;;4.15;;
20734;SDS011;10528;52.124;5.196;2023-07-28T09:24:29;8.70;;;3.53;;
20734;SDS011;10528;52.124;5.196;2023-07-28T09:27:00;8.15;;;4.00;;
20734;SDS011;10528;52.124;5.196;2023-07-28T09:29:28;7.65;;;3.85;;
20734;SDS011;10528;52.124;5.196;2023-07-28T09:32:04;8.32;;;4.07;;
20734;SDS011;10528;52.124;5.196;2023-07-28T09:34:33;7.20;;;4.10;;
20734;SDS011;10528;52.124;5.196;2023-07-28T09:37:00;6.43;;;3.70;;
20734;SDS011;10528;52.124;5.196;2023-07-28T09:39:28;9.90;;;4.68;;
20734;SDS011;10528;52.124;5.196;2023-07-28T09:41:55;12.00;;;4.40;;
20734;SDS011;10528;52.124;5.196;2023-07-28T09:44:25;8.20;;;4.82;;
20734;SDS011;10528;52.124;5.196;2023-07-28T09:46:53;7.55;;;4.95;;
20734;SDS011;10528;52.124;5.196;2023-07-28T09:49:31;7.50;;;4.60;;
20734;SDS011;10528;52.124;5.196;2023-07-28T09:52:10;8.82;;;4.30;;
20734;SDS011;10528;52.124;5.196;2023-07-28T09:54:41;7.78;;;4.65;;
20734;SDS011;10528;52.124;5.196;2023-07-28T09:57:13;8.35;;;4.45;;
20734;SDS011;10528;52.124;5.196;2023-07-28T09:59:47;7.00;;;4.70;;
20734;SDS011;10528;52.124;5.196;2023-07-28T10:02:16;7.32;;;4.10;;
20734;SDS011;10528;52.124;5.196;2023-07-28T10:04:43;8.40;;;4.30;;
20734;SDS011;10528;52.124;5.196;2023-07-28T10:07:11;7.28;;;4.82;;
20734;SDS011;10528;52.124;5.196;2023-07-28T10:09:39;6.78;;;4.28;;
20734;SDS011;10528;52.124;5.196;2023-07-28T10:12:07;10.90;;;4.43;;
20734;SDS011;10528;52.124;5.196;2023-07-28T10:14:50;6.43;;;4.43;;
20734;SDS011;10528;52.124;5.196;2023-07-28T10:17:31;7.10;;;4.72;;
20734;SDS011;10528;52.124;5.196;2023-07-28T10:20:04;8.32;;;4.82;;
20734;SDS011;10528;52.124;5.196;2023-07-28T10:22:44;7.97;;;4.40;;
20734;SDS011;10528;52.124;5.196;2023-07-28T10:25:11;6.53;;;4.18;;
20734;SDS011;10528;52.124;5.196;2023-07-28T10:27:39;7.88;;;4.63;;
20734;SDS011;10528;52.124;5.196;2023-07-28T10:30:13;5.78;;;4.22;;
20734;SDS011;10528;52.124;5.196;2023-07-28T10:32:42;6.10;;;4.85;;
20734;SDS011;10528;52.124;5.196;2023-07-28T10:37:38;4.57;;;4.07;;
20734;SDS011;10528;52.124;5.196;2023-07-28T10:40:22;8.07;;;5.03;;
20734;SDS011;10528;52.124;5.196;2023-07-28T10:42:56;6.93;;;4.65;;
20734;SDS011;10528;52.124;5.196;2023-07-28T10:45:25;7.53;;;3.88;;
20734;SDS011;10528;52.124;5.196;2023-07-28T10:47:55;6.80;;;4.50;;
20734;SDS011;10528;52.124;5.196;2023-07-28T10:50:30;6.10;;;4.32;;
20734;SDS011;10528;52.124;5.196;2023-07-28T10:52:58;6.90;;;4.35;;
20734;SDS011;10528;52.124;5.196;2023-07-28T10:55:25;6.53;;;4.53;;
20734;SDS011;10528;52.124;5.196;2023-07-28T10:57:54;6.32;;;3.95;;
20734;SDS011;10528;52.124;5.196;2023-07-28T11:00:22;7.18;;;4.18;;
20734;SDS011;10528;52.124;5.196;2023-07-28T11:02:53;7.78;;;3.65;;
20734;SDS011;10528;52.124;5.196;2023-07-28T11:05:22;5.88;;;4.25;;
20734;SDS011;10528;52.124;5.196;2023-07-28T11:07:54;6.65;;;4.05;;
20734;SDS011;10528;52.124;5.196;2023-07-28T11:10:30;7.30;;;4.88;;
20734;SDS011;10528;52.124;5.196;2023-07-28T11:13:00;7.43;;;4.55;;
20734;SDS011;10528;52.124;5.196;2023-07-28T11:15:46;5.80;;;4.00;;
20734;SDS011;10528;52.124;5.196;2023-07-28T11:18:14;6.57;;;4.07;;
20734;SDS011;10528;52.124;5.196;2023-07-28T11:20:42;8.63;;;4.57;;
20734;SDS011;10528;52.124;5.196;2023-07-28T11:23:13;6.55;;;4.32;;
20734;SDS011;10528;52.124;5.196;2023-07-28T11:25:41;7.97;;;5.13;;
20734;SDS011;10528;52.124;5.196;2023-07-28T11:28:10;7.13;;;4.63;;
20734;SDS011;10528;52.124;5.196;2023-07-28T11:30:37;7.28;;;5.03;;
20734;SDS011;10528;52.124;5.196;2023-07-28T11:33:07;7.47;;;5.35;;
20734;SDS011;10528;52.124;5.196;2023-07-28T11:35:37;7.65;;;5.70;;
20734;SDS011;10528;52.124;5.196;2023-07-28T11:38:06;7.22;;;5.57;;
20734;SDS011;10528;52.124;5.196;2023-07-28T11:40:34;6.88;;;4.35;;
20734;SDS011;10528;52.124;5.196;2023-07-28T11:43:02;7.80;;;4.95;;
20734;SDS011;10528;52.124;5.196;2023-07-28T11:45:30;6.10;;;4.05;;
20734;SDS011;10528;52.124;5.196;2023-07-28T11:47:58;5.43;;;3.45;;
20734;SDS011;10528;52.124;5.196;2023-07-28T11:50:34;7.20;;;4.18;;
20734;SDS011;10528;52.124;5.196;2023-07-28T11:53:04;8.52;;;4.97;;
20734;SDS011;10528;52.124;5.196;2023-07-28T11:55:34;9.45;;;4.85;;
20734;SDS011;10528;52.124;5.196;2023-07-28T11:58:03;6.53;;;4.15;;
20734;SDS011;10528;52.124;5.196;2023-07-28T12:00:35;6.70;;;4.88;;
20734;SDS011;10528;52.124;5.196;2023-07-28T12:03:05;9.13;;;4.80;;
20734;SDS011;10528;52.124;5.196;2023-07-28T12:05:39;6.68;;;4.80;;
20734;SDS011;10528;52.124;5.196;2023-07-28T12:08:39;8.65;;;4.57;;
20734;SDS011;10528;52.124;5.196;2023-07-28T12:11:14;6.95;;;4.72;;
20734;SDS011;10528;52.124;5.196;2023-07-28T12:14:03;4.97;;;4.20;;
20734;SDS011;10528;52.124;5.196;2023-07-28T12:16:41;6.13;;;4.55;;
20734;SDS011;10528;52.124;5.196;2023-07-28T12:19:17;6.53;;;4.72;;
20734;SDS011;10528;52.124;5.196;2023-07-28T12:21:44;6.53;;;4.28;;
20734;SDS011;10528;52.124;5.196;2023-07-28T12:24:11;6.75;;;4.68;;
20734;SDS011;10528;52.124;5.196;2023-07-28T12:26:37;6.78;;;4.93;;
20734;SDS011;10528;52.124;5.196;2023-07-28T12:29:06;6.93;;;4.43;;
20734;SDS011;10528;52.124;5.196;2023-07-28T12:31:37;5.68;;;4.95;;
20734;SDS011;10528;52.124;5.196;2023-07-28T12:34:07;7.10;;;4.40;;
20734;SDS011;10528;52.124;5.196;2023-07-28T12:36:34;10.23;;;5.78;;
20734;SDS011;10528;52.124;5.196;2023-07-28T12:39:04;6.45;;;4.63;;
20734;SDS011;10528;52.124;5.196;2023-07-28T12:41:35;7.15;;;4.72;;
20734;SDS011;10528;52.124;5.196;2023-07-28T12:44:04;8.10;;;5.03;;
20734;SDS011;10528;52.124;5.196;2023-07-28T12:46:32;6.22;;;4.78;;
20734;SDS011;10528;52.124;5.196;2023-07-28T12:48:59;11.80;;;5.60;;
20734;SDS011;10528;52.124;5.196;2023-07-28T12:51:26;7.88;;;5.40;;
20734;SDS011;10528;52.124;5.196;2023-07-28T12:53:56;7.07;;;4.00;;
20734;SDS011;10528;52.124;5.196;2023-07-28T12:56:23;7.18;;;4.07;;
20734;SDS011;10528;52.124;5.196;2023-07-28T12:58:53;6.35;;;3.80;;
20734;SDS011;10528;52.124;5.196;2023-07-28T13:01:22;5.15;;;3.90;;
20734;SDS011;10528;52.124;5.196;2023-07-28T13:03:49;7.68;;;3.95;;
20734;SDS011;10528;52.124;5.196;2023-07-28T13:06:16;6.93;;;3.65;;
20734;SDS011;10528;52.124;5.196;2023-07-28T13:08:43;10.43;;;4.70;;
20734;SDS011;10528;52.124;5.196;2023-07-28T13:11:13;5.65;;;3.38;;
20734;SDS011;10528;52.124;5.196;2023-07-28T13:13:44;4.97;;;3.10;;
20734;SDS011;10528;52.124;5.196;2023-07-28T13:16:11;5.43;;;3.13;;
20734;SDS011;10528;52.124;5.196;2023-07-28T13:18:38;6.60;;;3.65;;
20734;SDS011;10528;52.124;5.196;2023-07-28T13:21:06;6.68;;;3.40;;
20734;SDS011;10528;52.124;5.196;2023-07-28T13:23:33;5.15;;;3.10;;
20734;SDS011;10528;52.124;5.196;2023-07-28T13:26:00;5.75;;;3.65;;
20734;SDS011;10528;52.124;5.196;2023-07-28T13:28:30;4.30;;;3.08;;
20734;SDS011;10528;52.124;5.196;2023-07-28T13:30:57;5.07;;;2.95;;
20734;SDS011;10528;52.124;5.196;2023-07-28T13:33:24;4.88;;;3.08;;
20734;SDS011;10528;52.124;5.196;2023-07-28T13:35:51;6.13;;;3.40;;
20734;SDS011;10528;52.124;5.196;2023-07-28T13:38:18;4.72;;;2.90;;
20734;SDS011;10528;52.124;5.196;2023-07-28T13:40:45;4.50;;;2.90;;
20734;SDS011;10528;52.124;5.196;2023-07-28T13:43:12;4.25;;;2.92;;
20734;SDS011;10528;52.124;5.196;2023-07-28T13:45:43;5.90;;;3.15;;
20734;SDS011;10528;52.124;5.196;2023-07-28T13:48:10;5.63;;;2.83;;
20734;SDS011;10528;52.124;5.196;2023-07-28T13:50:51;6.05;;;3.10;;
20734;SDS011;10528;52.124;5.196;2023-07-28T13:53:22;4.13;;;2.67;;
20734;SDS011;10528;52.124;5.196;2023-07-28T13:55:52;4.63;;;2.97;;
20734;SDS011;10528;52.124;5.196;2023-07-28T13:58:23;6.72;;;3.35;;
20734;SDS011;10528;52.124;5.196;2023-07-28T14:00:51;5.38;;;3.10;;
20734;SDS011;10528;52.124;5.196;2023-07-28T14:03:18;5.30;;;3.55;;
20734;SDS011;10528;52.124;5.196;2023-07-28T14:05:45;5.00;;;2.92;;
20734;SDS011;10528;52.124;5.196;2023-07-28T14:08:12;7.18;;;3.58;;
20734;SDS011;10528;52.124;5.196;2023-07-28T14:10:44;6.57;;;4.07;;
20734;SDS011;10528;52.124;5.196;2023-07-28T14:13:15;5.05;;;3.28;;
20734;SDS011;10528;52.124;5.196;2023-07-28T14:15:42;5.50;;;3.85;;
20734;SDS011;10528;52.124;5.196;2023-07-28T14:18:09;6.25;;;4.25;;
20734;SDS011;10528;52.124;5.196;2023-07-28T14:20:36;6.85;;;4.00;;
20734;SDS011;10528;52.124;5.196;2023-07-28T14:23:08;5.57;;;3.80;;
20734;SDS011;10528;52.124;5.196;2023-07-28T14:25:51;7.20;;;4.78;;
20734;SDS011;10528;52.124;5.196;2023-07-28T14:28:18;8.07;;;4.75;;
20734;SDS011;10528;52.124;5.196;2023-07-28T14:30:48;8.88;;;4.97;;
20734;SDS011;10528;52.124;5.196;2023-07-28T14:33:18;9.90;;;5.97;;
20734;SDS011;10528;52.124;5.196;2023-07-28T14:35:46;8.90;;;5.75;;
20734;SDS011;10528;52.124;5.196;2023-07-28T14:38:15;8.65;;;5.38;;
20734;SDS011;10528;52.124;5.196;2023-07-28T14:40:43;7.60;;;4.88;;
20734;SDS011;10528;52.124;5.196;2023-07-28T14:43:15;6.43;;;4.88;;
20734;SDS011;10528;52.124;5.196;2023-07-28T14:45:43;7.13;;;4.82;;
20734;SDS011;10528;52.124;5.196;2023-07-28T14:48:10;8.50;;;5.30;;
20734;SDS011;10528;52.124;5.196;2023-07-28T14:50:37;7.63;;;4.60;;
20734;SDS011;10528;52.124;5.196;2023-07-28T14:53:26;11.95;;;6.53;;